sensor_id;sensor_type;location;lat;lon;timestamp;P1;durP1;ratioP1;P2;durP2;ratioP2
76171;SDS011;64929;51.178;4.138;2023-09-12T00:02:22;30.63;;;19.55;;
76171;SDS011;64929;51.178;4.138;2023-09-12T00:04:48;28.85;;;18.90;;
76171;SDS011;64929;51.178;4.138;2023-09-12T00:07:15;34.95;;;21.17;;
76171;SDS011;64929;51.178;4.138;2023-09-12T00:09:41;31.92;;;19.35;;
76171;SDS011;64929;51.178;4.138;2023-09-12T00:12:06;35.17;;;20.15;;
76171;SDS011;64929;51.178;4.138;2023-09-12T00:14:33;30.70;;;19.33;;
76171;SDS011;64929;51.178;4.138;2023-09-12T00:16:58;32.85;;;20.08;;
76171;SDS011;64929;51.178;4.138;2023-09-12T00:19:24;32.03;;;21.23;;
76171;SDS011;64929;51.178;4.138;2023-09-12T00:21:51;37.88;;;22.55;;
76171;SDS011;64929;51.178;4.138;2023-09-12T00:24:18;36.13;;;21.27;;
76171;SDS011;64929;51.178;4.138;2023-09-12T00:26:44;34.22;;;21.85;;
76171;SDS011;64929;51.178;4.138;2023-09-12T00:29:10;30.30;;;20.63;;
76171;SDS011;64929;51.178;4.138;2023-09-12T00:31:36;37.10;;;22.67;;
76171;SDS011;64929;51.178;4.138;2023-09-12T00:34:03;41.45;;;23.00;;
76171;SDS011;64929;51.178;4.138;2023-09-12T00:36:29;38.25;;;23.52;;
76171;SDS011;64929;51.178;4.138;2023-09-12T00:38:56;35.90;;;22.75;;
76171;SDS011;64929;51.178;4.138;2023-09-12T00:41:22;36.35;;;22.33;;
76171;SDS011;64929;51.178;4.138;2023-09-12T00:43:48;38.70;;;23.92;;
76171;SDS011;64929;51.178;4.138;2023-09-12T00:46:15;43.72;;;24.58;;
76171;SDS011;64929;51.178;4.138;2023-09-12T00:48:43;41.28;;;24.52;;
76171;SDS011;64929;51.178;4.138;2023-09-12T00:51:10;41.20;;;25.08;;
76171;SDS011;64929;51.178;4.138;2023-09-12T00:53:36;39.72;;;23.23;;
76171;SDS011;64929;51.178;4.138;2023-09-12T00:56:02;33.03;;;20.83;;
76171;SDS011;64929;51.178;4.138;2023-09-12T00:58:28;33.28;;;20.85;;
76171;SDS011;64929;51.178;4.138;2023-09-12T01:00:54;38.03;;;20.38;;
76171;SDS011;64929;51.178;4.138;2023-09-12T01:03:21;32.30;;;20.08;;
76171;SDS011;64929;51.178;4.138;2023-09-12T01:05:47;28.83;;;19.70;;
76171;SDS011;64929;51.178;4.138;2023-09-12T01:08:14;36.78;;;20.23;;
76171;SDS011;64929;51.178;4.138;2023-09-12T01:10:40;33.17;;;20.08;;
76171;SDS011;64929;51.178;4.138;2023-09-12T01:13:11;33.38;;;19.90;;
76171;SDS011;64929;51.178;4.138;2023-09-12T01:15:40;33.53;;;19.20;;
76171;SDS011;64929;51.178;4.138;2023-09-12T01:18:07;31.15;;;19.00;;
76171;SDS011;64929;51.178;4.138;2023-09-12T01:20:34;34.83;;;19.33;;
76171;SDS011;64929;51.178;4.138;2023-09-12T01:28:37;36.40;;;19.50;;
76171;SDS011;64929;51.178;4.138;2023-09-12T01:31:07;34.28;;;20.15;;
76171;SDS011;64929;51.178;4.138;2023-09-12T01:33:34;35.25;;;19.33;;
76171;SDS011;64929;51.178;4.138;2023-09-12T01:36:00;38.20;;;20.10;;
76171;SDS011;64929;51.178;4.138;2023-09-12T01:38:26;34.75;;;20.02;;
76171;SDS011;64929;51.178;4.138;2023-09-12T01:40:52;32.70;;;18.15;;
76171;SDS011;64929;51.178;4.138;2023-09-12T01:43:21;29.15;;;18.00;;
76171;SDS011;64929;51.178;4.138;2023-09-12T01:45:49;30.38;;;17.58;;
76171;SDS011;64929;51.178;4.138;2023-09-12T01:48:19;33.95;;;18.23;;
76171;SDS011;64929;51.178;4.138;2023-09-12T01:50:47;31.35;;;18.48;;
76171;SDS011;64929;51.178;4.138;2023-09-12T01:53:13;29.17;;;17.63;;
76171;SDS011;64929;51.178;4.138;2023-09-12T01:55:41;26.90;;;17.02;;
76171;SDS011;64929;51.178;4.138;2023-09-12T01:58:09;26.93;;;17.93;;
76171;SDS011;64929;51.178;4.138;2023-09-12T02:00:36;29.80;;;18.40;;
76171;SDS011;64929;51.178;4.138;2023-09-12T02:03:03;30.10;;;18.48;;
76171;SDS011;64929;51.178;4.138;2023-09-12T02:05:29;31.77;;;18.33;;
76171;SDS011;64929;51.178;4.138;2023-09-12T02:07:55;29.58;;;17.90;;
76171;SDS011;64929;51.178;4.138;2023-09-12T02:10:21;29.00;;;18.88;;
76171;SDS011;64929;51.178;4.138;2023-09-12T02:12:47;30.13;;;18.50;;
76171;SDS011;64929;51.178;4.138;2023-09-12T02:15:13;30.75;;;19.75;;
76171;SDS011;64929;51.178;4.138;2023-09-12T02:17:40;33.30;;;19.08;;
76171;SDS011;64929;51.178;4.138;2023-09-12T02:20:07;30.85;;;18.73;;
76171;SDS011;64929;51.178;4.138;2023-09-12T02:22:34;29.70;;;18.13;;
76171;SDS011;64929;51.178;4.138;2023-09-12T02:24:59;28.15;;;18.23;;
76171;SDS011;64929;51.178;4.138;2023-09-12T02:27:25;28.60;;;18.08;;
76171;SDS011;64929;51.178;4.138;2023-09-12T02:29:52;25.75;;;17.70;;
76171;SDS011;64929;51.178;4.138;2023-09-12T02:32:18;28.02;;;18.67;;
76171;SDS011;64929;51.178;4.138;2023-09-12T02:34:43;28.35;;;17.05;;
76171;SDS011;64929;51.178;4.138;2023-09-12T02:37:09;31.90;;;18.88;;
76171;SDS011;64929;51.178;4.138;2023-09-12T02:39:35;31.63;;;18.52;;
76171;SDS011;64929;51.178;4.138;2023-09-12T02:42:01;27.13;;;17.65;;
76171;SDS011;64929;51.178;4.138;2023-09-12T02:44:27;29.95;;;18.63;;
76171;SDS011;64929;51.178;4.138;2023-09-12T02:46:53;30.23;;;19.10;;
76171;SDS011;64929;51.178;4.138;2023-09-12T02:49:19;28.38;;;18.05;;
76171;SDS011;64929;51.178;4.138;2023-09-12T02:51:45;28.73;;;17.27;;
76171;SDS011;64929;51.178;4.138;2023-09-12T02:54:11;26.42;;;17.42;;
76171;SDS011;64929;51.178;4.138;2023-09-12T02:56:36;27.50;;;17.20;;
76171;SDS011;64929;51.178;4.138;2023-09-12T02:59:02;28.58;;;17.35;;
76171;SDS011;64929;51.178;4.138;2023-09-12T03:01:30;28.55;;;17.83;;
76171;SDS011;64929;51.178;4.138;2023-09-12T03:03:57;28.02;;;17.42;;
76171;SDS011;64929;51.178;4.138;2023-09-12T03:06:22;29.38;;;17.45;;
76171;SDS011;64929;51.178;4.138;2023-09-12T03:08:48;27.27;;;16.13;;
76171;SDS011;64929;51.178;4.138;2023-09-12T03:11:15;23.70;;;16.23;;
76171;SDS011;64929;51.178;4.138;2023-09-12T03:13:43;32.05;;;17.10;;
76171;SDS011;64929;51.178;4.138;2023-09-12T03:16:10;32.17;;;18.00;;
76171;SDS011;64929;51.178;4.138;2023-09-12T03:18:36;28.27;;;18.25;;
76171;SDS011;64929;51.178;4.138;2023-09-12T03:21:02;32.03;;;17.52;;
76171;SDS011;64929;51.178;4.138;2023-09-12T03:23:28;30.95;;;17.27;;
76171;SDS011;64929;51.178;4.138;2023-09-12T03:25:54;28.25;;;17.10;;
76171;SDS011;64929;51.178;4.138;2023-09-12T03:28:20;27.75;;;17.65;;
76171;SDS011;64929;51.178;4.138;2023-09-12T03:30:46;27.50;;;17.08;;
76171;SDS011;64929;51.178;4.138;2023-09-12T03:33:12;27.77;;;17.20;;
76171;SDS011;64929;51.178;4.138;2023-09-12T03:35:38;30.83;;;16.95;;
76171;SDS011;64929;51.178;4.138;2023-09-12T03:38:04;31.20;;;16.92;;
76171;SDS011;64929;51.178;4.138;2023-09-12T03:40:30;26.65;;;17.50;;
76171;SDS011;64929;51.178;4.138;2023-09-12T03:42:57;27.45;;;16.30;;
76171;SDS011;64929;51.178;4.138;2023-09-12T03:45:23;28.42;;;17.05;;
76171;SDS011;64929;51.178;4.138;2023-09-12T03:47:49;33.45;;;17.38;;
76171;SDS011;64929;51.178;4.138;2023-09-12T03:50:15;32.78;;;18.00;;
76171;SDS011;64929;51.178;4.138;2023-09-12T03:52:41;32.10;;;17.95;;
76171;SDS011;64929;51.178;4.138;2023-09-12T03:55:07;29.48;;;17.80;;
76171;SDS011;64929;51.178;4.138;2023-09-12T03:57:34;29.83;;;17.73;;
76171;SDS011;64929;51.178;4.138;2023-09-12T04:00:00;30.98;;;17.95;;
76171;SDS011;64929;51.178;4.138;2023-09-12T04:02:26;29.83;;;17.90;;
76171;SDS011;64929;51.178;4.138;2023-09-12T04:04:52;32.67;;;17.42;;
76171;SDS011;64929;51.178;4.138;2023-09-12T04:07:17;26.05;;;16.55;;
76171;SDS011;64929;51.178;4.138;2023-09-12T04:09:44;27.83;;;15.98;;
76171;SDS011;64929;51.178;4.138;2023-09-12T04:12:09;28.80;;;17.52;;
76171;SDS011;64929;51.178;4.138;2023-09-12T04:14:38;30.10;;;17.67;;
76171;SDS011;64929;51.178;4.138;2023-09-12T04:17:04;27.90;;;17.65;;
76171;SDS011;64929;51.178;4.138;2023-09-12T04:19:30;30.38;;;17.90;;
76171;SDS011;64929;51.178;4.138;2023-09-12T04:21:56;27.30;;;16.88;;
76171;SDS011;64929;51.178;4.138;2023-09-12T04:24:22;27.38;;;17.77;;
76171;SDS011;64929;51.178;4.138;2023-09-12T04:26:48;27.00;;;16.17;;
76171;SDS011;64929;51.178;4.138;2023-09-12T04:29:14;26.95;;;16.85;;
76171;SDS011;64929;51.178;4.138;2023-09-12T04:31:39;28.50;;;17.40;;
76171;SDS011;64929;51.178;4.138;2023-09-12T04:34:05;25.85;;;16.50;;
76171;SDS011;64929;51.178;4.138;2023-09-12T04:36:31;27.05;;;15.35;;
76171;SDS011;64929;51.178;4.138;2023-09-12T04:38:58;25.30;;;16.20;;
76171;SDS011;64929;51.178;4.138;2023-09-12T04:41:24;24.70;;;15.52;;
76171;SDS011;64929;51.178;4.138;2023-09-12T04:43:49;27.67;;;16.40;;
76171;SDS011;64929;51.178;4.138;2023-09-12T04:46:15;23.23;;;15.82;;
76171;SDS011;64929;51.178;4.138;2023-09-12T04:48:41;26.10;;;16.05;;
76171;SDS011;64929;51.178;4.138;2023-09-12T04:51:08;24.73;;;16.38;;
76171;SDS011;64929;51.178;4.138;2023-09-12T04:53:34;27.10;;;16.17;;
76171;SDS011;64929;51.178;4.138;2023-09-12T04:56:01;30.00;;;16.00;;
76171;SDS011;64929;51.178;4.138;2023-09-12T04:58:27;25.58;;;16.55;;
76171;SDS011;64929;51.178;4.138;2023-09-12T05:00:54;25.70;;;15.90;;
76171;SDS011;64929;51.178;4.138;2023-09-12T05:03:21;22.73;;;15.32;;
76171;SDS011;64929;51.178;4.138;2023-09-12T05:05:47;29.00;;;15.80;;
76171;SDS011;64929;51.178;4.138;2023-09-12T05:08:14;27.02;;;15.20;;
76171;SDS011;64929;51.178;4.138;2023-09-12T05:10:40;24.67;;;16.00;;
76171;SDS011;64929;51.178;4.138;2023-09-12T05:13:06;26.92;;;16.05;;
76171;SDS011;64929;51.178;4.138;2023-09-12T05:15:31;23.73;;;15.90;;
76171;SDS011;64929;51.178;4.138;2023-09-12T05:17:57;27.58;;;15.10;;
76171;SDS011;64929;51.178;4.138;2023-09-12T05:20:23;25.50;;;15.50;;
76171;SDS011;64929;51.178;4.138;2023-09-12T05:22:49;24.30;;;14.15;;
76171;SDS011;64929;51.178;4.138;2023-09-12T05:25:15;24.77;;;15.10;;
76171;SDS011;64929;51.178;4.138;2023-09-12T05:27:41;26.77;;;15.80;;
76171;SDS011;64929;51.178;4.138;2023-09-12T05:30:07;24.30;;;14.88;;
76171;SDS011;64929;51.178;4.138;2023-09-12T05:32:34;24.48;;;14.50;;
76171;SDS011;64929;51.178;4.138;2023-09-12T05:35:01;28.15;;;16.30;;
76171;SDS011;64929;51.178;4.138;2023-09-12T05:37:27;25.77;;;15.82;;
76171;SDS011;64929;51.178;4.138;2023-09-12T05:39:53;25.52;;;15.02;;
76171;SDS011;64929;51.178;4.138;2023-09-12T05:42:19;26.13;;;15.15;;
76171;SDS011;64929;51.178;4.138;2023-09-12T05:44:50;26.85;;;16.40;;
76171;SDS011;64929;51.178;4.138;2023-09-12T05:47:19;30.58;;;16.63;;
76171;SDS011;64929;51.178;4.138;2023-09-12T05:49:45;28.60;;;16.92;;
76171;SDS011;64929;51.178;4.138;2023-09-12T05:52:11;26.88;;;16.83;;
76171;SDS011;64929;51.178;4.138;2023-09-12T05:54:38;27.23;;;15.98;;
76171;SDS011;64929;51.178;4.138;2023-09-12T05:57:05;33.47;;;18.58;;
76171;SDS011;64929;51.178;4.138;2023-09-12T05:59:31;39.67;;;18.85;;
76171;SDS011;64929;51.178;4.138;2023-09-12T06:01:58;39.22;;;20.02;;
76171;SDS011;64929;51.178;4.138;2023-09-12T06:04:24;45.45;;;22.10;;
76171;SDS011;64929;51.178;4.138;2023-09-12T06:06:50;64.95;;;25.52;;
76171;SDS011;64929;51.178;4.138;2023-09-12T06:09:16;65.65;;;28.20;;
76171;SDS011;64929;51.178;4.138;2023-09-12T06:11:42;73.57;;;29.55;;
76171;SDS011;64929;51.178;4.138;2023-09-12T06:14:08;62.25;;;27.27;;
76171;SDS011;64929;51.178;4.138;2023-09-12T06:16:34;68.30;;;29.05;;
76171;SDS011;64929;51.178;4.138;2023-09-12T06:19:00;69.45;;;29.65;;
76171;SDS011;64929;51.178;4.138;2023-09-12T06:21:26;73.78;;;30.08;;
76171;SDS011;64929;51.178;4.138;2023-09-12T06:24:07;71.72;;;30.25;;
76171;SDS011;64929;51.178;4.138;2023-09-12T06:26:37;80.47;;;30.40;;
76171;SDS011;64929;51.178;4.138;2023-09-12T06:29:03;81.25;;;31.00;;
76171;SDS011;64929;51.178;4.138;2023-09-12T06:31:30;76.68;;;31.20;;
76171;SDS011;64929;51.178;4.138;2023-09-12T06:33:56;82.43;;;32.20;;
76171;SDS011;64929;51.178;4.138;2023-09-12T06:36:23;75.18;;;31.08;;
76171;SDS011;64929;51.178;4.138;2023-09-12T06:38:51;86.45;;;32.88;;
76171;SDS011;64929;51.178;4.138;2023-09-12T06:41:20;83.55;;;31.58;;
76171;SDS011;64929;51.178;4.138;2023-09-12T06:43:46;74.97;;;30.02;;
76171;SDS011;64929;51.178;4.138;2023-09-12T06:46:12;75.95;;;30.33;;
76171;SDS011;64929;51.178;4.138;2023-09-12T06:48:38;73.95;;;30.45;;
76171;SDS011;64929;51.178;4.138;2023-09-12T06:51:07;74.97;;;31.67;;
76171;SDS011;64929;51.178;4.138;2023-09-12T06:53:34;74.40;;;30.45;;
76171;SDS011;64929;51.178;4.138;2023-09-12T06:56:02;78.90;;;30.70;;
76171;SDS011;64929;51.178;4.138;2023-09-12T06:58:31;69.80;;;29.30;;
76171;SDS011;64929;51.178;4.138;2023-09-12T07:01:03;70.30;;;29.75;;
76171;SDS011;64929;51.178;4.138;2023-09-12T07:03:33;80.38;;;31.55;;
76171;SDS011;64929;51.178;4.138;2023-09-12T07:06:00;76.35;;;31.17;;
76171;SDS011;64929;51.178;4.138;2023-09-12T07:08:28;76.90;;;30.58;;
76171;SDS011;64929;51.178;4.138;2023-09-12T07:10:57;76.22;;;31.58;;
76171;SDS011;64929;51.178;4.138;2023-09-12T07:13:30;65.13;;;29.45;;
76171;SDS011;64929;51.178;4.138;2023-09-12T07:15:57;75.22;;;31.30;;
76171;SDS011;64929;51.178;4.138;2023-09-12T07:18:23;77.45;;;33.30;;
76171;SDS011;64929;51.178;4.138;2023-09-12T07:21:03;64.55;;;28.92;;
76171;SDS011;64929;51.178;4.138;2023-09-12T07:23:30;65.05;;;27.80;;
76171;SDS011;64929;51.178;4.138;2023-09-12T07:25:57;65.30;;;29.08;;
76171;SDS011;64929;51.178;4.138;2023-09-12T07:28:26;56.40;;;27.42;;
76171;SDS011;64929;51.178;4.138;2023-09-12T07:30:53;54.30;;;26.65;;
76171;SDS011;64929;51.178;4.138;2023-09-12T07:33:20;68.90;;;30.02;;
76171;SDS011;64929;51.178;4.138;2023-09-12T07:35:46;62.20;;;28.90;;
76171;SDS011;64929;51.178;4.138;2023-09-12T07:38:13;57.83;;;27.05;;
76171;SDS011;64929;51.178;4.138;2023-09-12T07:40:40;54.25;;;26.02;;
76171;SDS011;64929;51.178;4.138;2023-09-12T07:43:07;47.25;;;24.02;;
76171;SDS011;64929;51.178;4.138;2023-09-12T07:45:34;54.67;;;24.23;;
76171;SDS011;64929;51.178;4.138;2023-09-12T07:48:03;52.80;;;25.73;;
76171;SDS011;64929;51.178;4.138;2023-09-12T07:50:31;51.03;;;25.08;;
76171;SDS011;64929;51.178;4.138;2023-09-12T07:52:57;49.47;;;25.55;;
76171;SDS011;64929;51.178;4.138;2023-09-12T07:55:23;46.63;;;23.48;;
76171;SDS011;64929;51.178;4.138;2023-09-12T07:57:49;41.75;;;23.30;;
76171;SDS011;64929;51.178;4.138;2023-09-12T08:00:15;43.63;;;22.75;;
76171;SDS011;64929;51.178;4.138;2023-09-12T08:02:42;43.83;;;20.95;;
76171;SDS011;64929;51.178;4.138;2023-09-12T08:05:08;36.88;;;18.95;;
76171;SDS011;64929;51.178;4.138;2023-09-12T08:07:34;35.55;;;19.23;;
76171;SDS011;64929;51.178;4.138;2023-09-12T08:10:00;36.85;;;17.58;;
76171;SDS011;64929;51.178;4.138;2023-09-12T08:12:27;34.13;;;18.42;;
76171;SDS011;64929;51.178;4.138;2023-09-12T08:14:54;37.30;;;18.15;;
76171;SDS011;64929;51.178;4.138;2023-09-12T08:17:21;34.15;;;19.02;;
76171;SDS011;64929;51.178;4.138;2023-09-12T08:19:48;36.60;;;18.83;;
76171;SDS011;64929;51.178;4.138;2023-09-12T08:22:14;37.35;;;18.48;;
76171;SDS011;64929;51.178;4.138;2023-09-12T08:24:40;38.17;;;20.08;;
76171;SDS011;64929;51.178;4.138;2023-09-12T08:27:07;35.50;;;19.48;;
76171;SDS011;64929;51.178;4.138;2023-09-12T08:29:34;38.20;;;19.95;;
76171;SDS011;64929;51.178;4.138;2023-09-12T08:32:00;38.33;;;20.33;;
76171;SDS011;64929;51.178;4.138;2023-09-12T08:34:26;35.17;;;18.25;;
76171;SDS011;64929;51.178;4.138;2023-09-12T08:36:52;29.10;;;16.95;;
76171;SDS011;64929;51.178;4.138;2023-09-12T08:39:38;28.08;;;17.20;;
76171;SDS011;64929;51.178;4.138;2023-09-12T08:42:07;30.08;;;18.10;;
76171;SDS011;64929;51.178;4.138;2023-09-12T08:44:37;31.33;;;18.05;;
76171;SDS011;64929;51.178;4.138;2023-09-12T08:47:03;33.90;;;18.67;;
76171;SDS011;64929;51.178;4.138;2023-09-12T08:49:33;39.60;;;18.85;;
76171;SDS011;64929;51.178;4.138;2023-09-12T08:52:00;39.72;;;20.08;;
76171;SDS011;64929;51.178;4.138;2023-09-12T08:54:27;33.35;;;18.67;;
76171;SDS011;64929;51.178;4.138;2023-09-12T08:56:53;33.03;;;19.13;;
76171;SDS011;64929;51.178;4.138;2023-09-12T08:59:20;33.15;;;18.75;;
76171;SDS011;64929;51.178;4.138;2023-09-12T09:01:45;35.30;;;18.77;;
76171;SDS011;64929;51.178;4.138;2023-09-12T09:04:12;34.15;;;19.27;;
76171;SDS011;64929;51.178;4.138;2023-09-12T09:06:39;36.30;;;19.65;;
76171;SDS011;64929;51.178;4.138;2023-09-12T09:09:07;33.95;;;20.13;;
76171;SDS011;64929;51.178;4.138;2023-09-12T09:11:33;39.35;;;20.13;;
76171;SDS011;64929;51.178;4.138;2023-09-12T09:14:00;35.85;;;20.17;;
76171;SDS011;64929;51.178;4.138;2023-09-12T09:16:29;34.72;;;19.45;;
76171;SDS011;64929;51.178;4.138;2023-09-12T09:18:57;35.25;;;19.58;;
76171;SDS011;64929;51.178;4.138;2023-09-12T09:21:35;31.88;;;19.48;;
76171;SDS011;64929;51.178;4.138;2023-09-12T09:24:10;33.78;;;18.55;;
76171;SDS011;64929;51.178;4.138;2023-09-12T09:26:46;31.95;;;19.27;;
76171;SDS011;64929;51.178;4.138;2023-09-12T09:29:20;41.08;;;19.30;;
76171;SDS011;64929;51.178;4.138;2023-09-12T09:31:50;33.60;;;18.75;;
76171;SDS011;64929;51.178;4.138;2023-09-12T09:36:44;38.00;;;19.13;;
76171;SDS011;64929;51.178;4.138;2023-09-12T09:39:12;38.80;;;19.73;;
76171;SDS011;64929;51.178;4.138;2023-09-12T09:41:38;33.47;;;17.75;;
76171;SDS011;64929;51.178;4.138;2023-09-12T09:44:05;32.95;;;18.08;;
76171;SDS011;64929;51.178;4.138;2023-09-12T09:46:32;33.33;;;18.55;;
76171;SDS011;64929;51.178;4.138;2023-09-12T09:48:58;36.47;;;18.50;;
76171;SDS011;64929;51.178;4.138;2023-09-12T09:51:25;32.70;;;17.08;;
76171;SDS011;64929;51.178;4.138;2023-09-12T09:53:51;32.30;;;17.15;;
76171;SDS011;64929;51.178;4.138;2023-09-12T09:56:18;31.50;;;16.77;;
76171;SDS011;64929;51.178;4.138;2023-09-12T09:58:51;33.58;;;17.05;;
76171;SDS011;64929;51.178;4.138;2023-09-12T10:01:18;31.42;;;18.45;;
76171;SDS011;64929;51.178;4.138;2023-09-12T10:03:48;30.67;;;15.65;;
76171;SDS011;64929;51.178;4.138;2023-09-12T10:06:16;26.73;;;14.00;;
76171;SDS011;64929;51.178;4.138;2023-09-12T10:08:46;24.75;;;15.30;;
76171;SDS011;64929;51.178;4.138;2023-09-12T10:11:17;23.23;;;14.85;;
76171;SDS011;64929;51.178;4.138;2023-09-12T10:13:49;27.17;;;14.00;;
76171;SDS011;64929;51.178;4.138;2023-09-12T10:16:18;28.95;;;14.90;;
76171;SDS011;64929;51.178;4.138;2023-09-12T10:18:50;24.33;;;13.77;;
76171;SDS011;64929;51.178;4.138;2023-09-12T10:21:29;21.38;;;13.15;;
76171;SDS011;64929;51.178;4.138;2023-09-12T10:23:58;22.92;;;13.73;;
76171;SDS011;64929;51.178;4.138;2023-09-12T10:26:30;24.95;;;14.95;;
76171;SDS011;64929;51.178;4.138;2023-09-12T10:28:56;26.48;;;15.45;;
76171;SDS011;64929;51.178;4.138;2023-09-12T10:31:24;27.00;;;14.98;;
76171;SDS011;64929;51.178;4.138;2023-09-12T10:33:51;26.30;;;15.00;;
76171;SDS011;64929;51.178;4.138;2023-09-12T10:36:19;24.25;;;13.52;;
76171;SDS011;64929;51.178;4.138;2023-09-12T10:38:46;22.83;;;14.52;;
76171;SDS011;64929;51.178;4.138;2023-09-12T10:41:14;19.85;;;12.57;;
76171;SDS011;64929;51.178;4.138;2023-09-12T10:43:40;18.45;;;11.70;;
76171;SDS011;64929;51.178;4.138;2023-09-12T10:46:08;17.33;;;11.32;;
76171;SDS011;64929;51.178;4.138;2023-09-12T10:48:35;20.38;;;10.70;;
76171;SDS011;64929;51.178;4.138;2023-09-12T10:51:01;16.55;;;10.55;;
76171;SDS011;64929;51.178;4.138;2023-09-12T10:53:31;18.02;;;10.38;;
76171;SDS011;64929;51.178;4.138;2023-09-12T10:58:35;20.77;;;12.65;;
76171;SDS011;64929;51.178;4.138;2023-09-12T11:01:41;26.17;;;14.38;;
76171;SDS011;64929;51.178;4.138;2023-09-12T11:06:45;21.98;;;12.55;;
76171;SDS011;64929;51.178;4.138;2023-09-12T11:11:55;12.48;;;8.40;;
76171;SDS011;64929;51.178;4.138;2023-09-12T11:14:22;16.83;;;8.75;;
76171;SDS011;64929;51.178;4.138;2023-09-12T11:22:29;13.27;;;7.63;;
76171;SDS011;64929;51.178;4.138;2023-09-12T11:25:03;15.50;;;9.60;;
76171;SDS011;64929;51.178;4.138;2023-09-12T11:27:31;16.08;;;9.30;;
76171;SDS011;64929;51.178;4.138;2023-09-12T11:30:04;15.38;;;8.73;;
76171;SDS011;64929;51.178;4.138;2023-09-12T11:32:32;12.95;;;8.77;;
76171;SDS011;64929;51.178;4.138;2023-09-12T11:35:04;10.23;;;7.20;;
76171;SDS011;64929;51.178;4.138;2023-09-12T11:37:31;11.32;;;6.85;;
76171;SDS011;64929;51.178;4.138;2023-09-12T11:39:58;11.75;;;6.22;;
76171;SDS011;64929;51.178;4.138;2023-09-12T11:42:24;11.30;;;6.80;;
76171;SDS011;64929;51.178;4.138;2023-09-12T11:44:51;9.20;;;5.68;;
76171;SDS011;64929;51.178;4.138;2023-09-12T11:47:17;13.10;;;7.18;;
76171;SDS011;64929;51.178;4.138;2023-09-12T11:49:43;11.23;;;6.80;;
76171;SDS011;64929;51.178;4.138;2023-09-12T11:52:09;12.27;;;7.70;;
76171;SDS011;64929;51.178;4.138;2023-09-12T11:54:38;14.40;;;7.88;;
76171;SDS011;64929;51.178;4.138;2023-09-12T11:57:06;11.95;;;7.65;;
76171;SDS011;64929;51.178;4.138;2023-09-12T11:59:36;8.15;;;5.40;;
76171;SDS011;64929;51.178;4.138;2023-09-12T12:02:05;9.90;;;6.18;;
76171;SDS011;64929;51.178;4.138;2023-09-12T12:04:32;9.50;;;5.63;;
76171;SDS011;64929;51.178;4.138;2023-09-12T12:06:59;9.15;;;5.82;;
76171;SDS011;64929;51.178;4.138;2023-09-12T12:09:25;9.20;;;5.68;;
76171;SDS011;64929;51.178;4.138;2023-09-12T12:11:52;10.63;;;6.38;;
76171;SDS011;64929;51.178;4.138;2023-09-12T12:14:17;11.50;;;6.72;;
76171;SDS011;64929;51.178;4.138;2023-09-12T12:16:45;14.30;;;6.78;;
76171;SDS011;64929;51.178;4.138;2023-09-12T12:19:12;14.05;;;8.65;;
76171;SDS011;64929;51.178;4.138;2023-09-12T12:21:39;14.57;;;8.63;;
76171;SDS011;64929;51.178;4.138;2023-09-12T12:24:13;12.43;;;8.02;;
76171;SDS011;64929;51.178;4.138;2023-09-12T12:26:43;11.80;;;8.15;;
76171;SDS011;64929;51.178;4.138;2023-09-12T12:29:09;10.98;;;6.50;;
76171;SDS011;64929;51.178;4.138;2023-09-12T12:31:36;10.18;;;6.20;;
76171;SDS011;64929;51.178;4.138;2023-09-12T12:34:02;9.93;;;5.68;;
76171;SDS011;64929;51.178;4.138;2023-09-12T12:36:29;8.10;;;5.88;;
76171;SDS011;64929;51.178;4.138;2023-09-12T12:38:55;11.60;;;6.75;;
76171;SDS011;64929;51.178;4.138;2023-09-12T12:41:24;15.65;;;10.23;;
76171;SDS011;64929;51.178;4.138;2023-09-12T12:43:52;29.13;;;18.27;;
76171;SDS011;64929;51.178;4.138;2023-09-12T12:46:19;34.10;;;19.40;;
76171;SDS011;64929;51.178;4.138;2023-09-12T12:48:47;25.27;;;16.33;;
76171;SDS011;64929;51.178;4.138;2023-09-12T12:51:14;26.02;;;17.10;;
76171;SDS011;64929;51.178;4.138;2023-09-12T12:53:47;29.73;;;18.42;;
76171;SDS011;64929;51.178;4.138;2023-09-12T12:56:16;22.85;;;14.55;;
76171;SDS011;64929;51.178;4.138;2023-09-12T12:58:50;23.48;;;15.05;;
76171;SDS011;64929;51.178;4.138;2023-09-12T13:01:18;29.73;;;19.70;;
76171;SDS011;64929;51.178;4.138;2023-09-12T13:03:44;30.80;;;18.67;;
76171;SDS011;64929;51.178;4.138;2023-09-12T13:06:10;30.80;;;19.95;;
76171;SDS011;64929;51.178;4.138;2023-09-12T13:08:40;31.77;;;19.73;;
76171;SDS011;64929;51.178;4.138;2023-09-12T13:11:07;34.83;;;20.48;;
76171;SDS011;64929;51.178;4.138;2023-09-12T13:13:34;25.92;;;19.17;;
76171;SDS011;64929;51.178;4.138;2023-09-12T13:16:01;29.23;;;19.45;;
76171;SDS011;64929;51.178;4.138;2023-09-12T13:18:37;30.88;;;19.90;;
76171;SDS011;64929;51.178;4.138;2023-09-12T13:21:06;27.13;;;18.40;;
76171;SDS011;64929;51.178;4.138;2023-09-12T13:23:35;28.25;;;21.02;;
76171;SDS011;64929;51.178;4.138;2023-09-12T13:26:02;28.00;;;18.67;;
76171;SDS011;64929;51.178;4.138;2023-09-12T13:28:28;30.80;;;20.10;;
76171;SDS011;64929;51.178;4.138;2023-09-12T13:30:54;31.70;;;19.65;;
76171;SDS011;64929;51.178;4.138;2023-09-12T13:33:22;26.67;;;19.17;;
76171;SDS011;64929;51.178;4.138;2023-09-12T13:35:48;25.77;;;19.70;;
76171;SDS011;64929;51.178;4.138;2023-09-12T13:38:15;25.98;;;19.15;;
76171;SDS011;64929;51.178;4.138;2023-09-12T13:40:42;26.50;;;19.10;;
76171;SDS011;64929;51.178;4.138;2023-09-12T13:43:09;25.40;;;19.00;;
76171;SDS011;64929;51.178;4.138;2023-09-12T13:45:35;26.02;;;18.67;;
76171;SDS011;64929;51.178;4.138;2023-09-12T13:48:01;26.25;;;18.45;;
76171;SDS011;64929;51.178;4.138;2023-09-12T13:50:28;26.00;;;18.50;;
76171;SDS011;64929;51.178;4.138;2023-09-12T13:52:55;22.88;;;16.38;;
76171;SDS011;64929;51.178;4.138;2023-09-12T13:55:22;23.55;;;17.13;;
76171;SDS011;64929;51.178;4.138;2023-09-12T13:57:48;24.77;;;17.55;;
76171;SDS011;64929;51.178;4.138;2023-09-12T14:00:14;23.90;;;18.52;;
76171;SDS011;64929;51.178;4.138;2023-09-12T14:02:40;23.40;;;17.85;;
76171;SDS011;64929;51.178;4.138;2023-09-12T14:05:06;23.58;;;17.40;;
76171;SDS011;64929;51.178;4.138;2023-09-12T14:07:33;22.50;;;17.20;;
76171;SDS011;64929;51.178;4.138;2023-09-12T14:10:00;25.77;;;16.92;;
76171;SDS011;64929;51.178;4.138;2023-09-12T14:12:27;24.30;;;16.88;;
76171;SDS011;64929;51.178;4.138;2023-09-12T14:14:53;25.23;;;16.80;;
76171;SDS011;64929;51.178;4.138;2023-09-12T14:17:19;24.10;;;16.30;;
76171;SDS011;64929;51.178;4.138;2023-09-12T14:19:45;26.95;;;16.05;;
76171;SDS011;64929;51.178;4.138;2023-09-12T14:22:11;23.77;;;16.75;;
76171;SDS011;64929;51.178;4.138;2023-09-12T14:24:37;23.55;;;16.73;;
76171;SDS011;64929;51.178;4.138;2023-09-12T14:27:03;24.88;;;16.13;;
76171;SDS011;64929;51.178;4.138;2023-09-12T14:29:29;21.92;;;14.73;;
76171;SDS011;64929;51.178;4.138;2023-09-12T14:31:55;22.13;;;14.93;;
76171;SDS011;64929;51.178;4.138;2023-09-12T14:34:24;19.67;;;14.18;;
76171;SDS011;64929;51.178;4.138;2023-09-12T14:36:53;21.85;;;15.48;;
76171;SDS011;64929;51.178;4.138;2023-09-12T14:39:20;22.20;;;13.73;;
76171;SDS011;64929;51.178;4.138;2023-09-12T14:41:46;20.17;;;14.23;;
76171;SDS011;64929;51.178;4.138;2023-09-12T14:44:17;21.83;;;14.77;;
76171;SDS011;64929;51.178;4.138;2023-09-12T14:46:43;20.23;;;14.20;;